EST,Max TemperatureF,Mean TemperatureF,Min TemperatureF,Max Dew PointF,MeanDew PointF,Min DewpointF,Max Humidity, Mean Humidity, Min Humidity, Max Sea Level PressureIn, Mean Sea Level PressureIn, Min Sea Level PressureIn, Max VisibilityMiles, Mean VisibilityMiles, Min VisibilityMiles, Max Wind SpeedMPH, Mean Wind SpeedMPH, Max Gust SpeedMPH,PrecipitationIn, CloudCover, Events, WindDirDegrees
2012-12-1,68,52,37,57,49,37,100,89,56,30.41,30.36,30.33,10,9,1,10,2,,0.00,4,,86
2012-12-2,68,56,44,63,55,45,100,96,73,30.42,30.35,30.29,10,8,0,12,2,,0.03,5,Fog,101
2012-12-3,73,58,44,63,55,45,100,93,61,30.35,30.31,30.27,10,6,0,9,1,,0.00,5,Fog,218
2012-12-4,71,63,55,63,60,55,100,95,69,30.37,30.29,30.26,10,9,0,8,1,,0.00,6,Fog-Rain,164
2012-12-5,77,62,46,61,54,46,100,83,41,30.25,30.18,30.11,10,8,0,9,2,,0.05,1,Fog,269
2012-12-6,59,54,50,52,47,43,88,77,71,30.23,30.19,30.15,10,10,10,15,11,22,0.00,6,Thunderstorm,49
2012-12-7,60,55,50,61,53,45,100,94,82,30.14,30.06,30.00,10,9,2,9,6,,0.01,8,Rain-Thunderstorm,349
2012-12-8,64,57,50,59,55,50,100,96,77,30.11,30.06,30.01,10,4,0,8,3,,0.00,4,Fog,278
2012-12-9,73,60,46,64,58,46,100,94,73,30.16,30.09,29.99,10,7,0,12,2,,0.00,5,Fog,120
2012-12-10,73,66,59,68,63,59,100,94,64,29.99,29.88,29.80,10,7,0,17,4,25,0.00,4,Fog,214
2012-12-11,71,65,59,68,63,59,100,94,73,30.08,29.94,29.81,10,10,4,13,7,16,0.00,5,Rain,262
2012-12-12,59,50,42,59,51,43,100,100,100,30.26,30.16,30.07,10,9,2,16,6,22,0.00,8,Rain,11
2012-12-13,48,44,41,46,43,41,100,99,87,30.34,30.26,30.16,10,9,4,16,10,24,0.00,6,Rain,359
2012-12-14,59,47,35,45,40,36,100,86,51,30.38,30.29,30.24,10,10,7,13,5,16,0.00,1,,8
2012-12-15,57,47,37,55,49,37,100,94,82,30.26,30.18,30.11,10,8,0,8,2,,0.00,6,Fog-Rain,30
2012-12-16,64,58,51,63,57,52,100,99,88,30.11,30.03,29.92,10,7,0,9,2,,0.00,5,Fog,142
2012-12-17,68,62,57,64,62,57,100,99,83,29.91,29.84,29.74,10,10,3,13,5,,0.01,5,Rain-Thunderstorm,233
2012-12-18,66,54,41,59,49,37,100,78,37,30.00,29.84,29.76,10,10,10,18,8,29,0.00,2,,258
2012-12-19,68,52,35,48,40,36,100,77,32,30.14,30.07,29.99,10,10,10,13,5,20,0.00,0,,263
2012-12-20,71,53,35,66,52,36,100,88,56,30.14,29.96,29.64,10,10,4,29,5,38,0.00,2,Rain,175
2012-12-21,60,50,41,61,32,28,100,59,43,29.95,29.83,29.67,10,10,10,25,18,39,0.00,1,,266
2012-12-22,53,42,32,32,26,21,93,58,32,30.18,30.10,29.95,10,10,10,14,9,21,0.00,0,,273
2012-12-23,59,44,28,37,32,27,100,70,36,30.22,30.15,30.10,10,10,10,8,4,,0.00,0,,237
2012-12-24,62,48,33,52,42,32,100,77,45,30.14,30.04,29.95,10,10,10,12,4,23,0.00,3,Rain,223
2012-12-25,60,53,46,55,52,46,100,94,72,30.10,30.03,29.96,10,9,1,14,5,,0.00,6,Rain,43
2012-12-26,68,55,42,66,53,34,100,86,59,29.98,29.71,29.51,10,8,2,28,12,39,0.00,5,Rain-Thunderstorm,214
2012-12-27,53,42,32,41,35,32,100,79,51,30.08,29.96,29.80,10,10,10,17,9,25,0.00,0,,270
2012-12-28,51,42,32,48,39,32,100,92,76,30.18,30.09,29.97,10,10,10,8,2,,0.00,1,,50
2012-12-29,55,48,42,54,46,34,100,88,67,30.03,29.83,29.70,10,9,3,20,7,29,0.00,6,Rain-Thunderstorm,284
2012-12-30,50,39,28,34,30,25,100,73,37,30.45,30.31,30.04,10,10,10,14,8,21,0.00,0,,313
2012-12-31,59,42,24,45,35,25,100,80,40,30.47,30.34,30.20,10,10,10,9,1,,0.00,2,,199